sensor_id;sensor_type;location;lat;lon;timestamp;P1;durP1;ratioP1;P2;durP2;ratioP2
73642;SDS011;61938;48.652;9.292;2022-09-09T00:03:57;3.05;;;1.70;;
73642;SDS011;61938;48.652;9.292;2022-09-09T00:06:42;4.38;;;2.00;;
73642;SDS011;61938;48.652;9.292;2022-09-09T00:09:15;8.30;;;1.90;;
73642;SDS011;61938;48.652;9.292;2022-09-09T00:11:46;5.82;;;1.75;;
73642;SDS011;61938;48.652;9.292;2022-09-09T00:16:59;4.97;;;1.92;;
73642;SDS011;61938;48.652;9.292;2022-09-09T00:19:33;5.65;;;1.60;;
73642;SDS011;61938;48.652;9.292;2022-09-09T00:24:46;4.68;;;1.90;;
73642;SDS011;61938;48.652;9.292;2022-09-09T00:27:31;5.57;;;1.65;;
73642;SDS011;61938;48.652;9.292;2022-09-09T00:32:39;5.40;;;2.28;;
73642;SDS011;61938;48.652;9.292;2022-09-09T00:35:14;3.83;;;1.88;;
73642;SDS011;61938;48.652;9.292;2022-09-09T00:37:44;4.82;;;1.77;;
73642;SDS011;61938;48.652;9.292;2022-09-09T00:43:31;4.65;;;2.00;;
73642;SDS011;61938;48.652;9.292;2022-09-09T00:48:39;7.80;;;2.00;;
73642;SDS011;61938;48.652;9.292;2022-09-09T00:51:25;5.40;;;1.98;;
73642;SDS011;61938;48.652;9.292;2022-09-09T00:54:25;3.28;;;1.85;;
73642;SDS011;61938;48.652;9.292;2022-09-09T00:59:52;6.03;;;1.92;;
73642;SDS011;61938;48.652;9.292;2022-09-09T01:05:20;8.35;;;1.80;;
73642;SDS011;61938;48.652;9.292;2022-09-09T01:07:47;6.95;;;1.80;;
73642;SDS011;61938;48.652;9.292;2022-09-09T01:10:19;9.55;;;1.98;;
73642;SDS011;61938;48.652;9.292;2022-09-09T01:12:58;4.10;;;1.67;;
73642;SDS011;61938;48.652;9.292;2022-09-09T01:15:30;5.32;;;1.70;;
73642;SDS011;61938;48.652;9.292;2022-09-09T01:17:59;8.05;;;1.92;;
73642;SDS011;61938;48.652;9.292;2022-09-09T01:20:37;4.57;;;1.70;;
73642;SDS011;61938;48.652;9.292;2022-09-09T01:28:44;4.30;;;1.90;;
73642;SDS011;61938;48.652;9.292;2022-09-09T01:31:14;3.85;;;1.55;;
73642;SDS011;61938;48.652;9.292;2022-09-09T01:33:44;5.88;;;1.70;;
73642;SDS011;61938;48.652;9.292;2022-09-09T01:36:12;2.92;;;1.63;;
73642;SDS011;61938;48.652;9.292;2022-09-09T01:38:44;5.22;;;1.80;;
73642;SDS011;61938;48.652;9.292;2022-09-09T01:41:10;6.07;;;1.98;;
73642;SDS011;61938;48.652;9.292;2022-09-09T01:43:36;5.82;;;1.73;;
73642;SDS011;61938;48.652;9.292;2022-09-09T01:46:02;7.88;;;1.73;;
73642;SDS011;61938;48.652;9.292;2022-09-09T01:48:28;3.75;;;1.38;;
73642;SDS011;61938;48.652;9.292;2022-09-09T01:50:55;3.22;;;1.33;;
73642;SDS011;61938;48.652;9.292;2022-09-09T01:53:21;6.50;;;2.55;;
73642;SDS011;61938;48.652;9.292;2022-09-09T02:04:02;12.35;;;2.05;;
73642;SDS011;61938;48.652;9.292;2022-09-09T02:06:37;5.97;;;2.03;;
73642;SDS011;61938;48.652;9.292;2022-09-09T02:09:05;3.47;;;1.73;;
73642;SDS011;61938;48.652;9.292;2022-09-09T02:11:33;4.60;;;1.50;;
73642;SDS011;61938;48.652;9.292;2022-09-09T02:14:09;11.52;;;2.20;;
73642;SDS011;61938;48.652;9.292;2022-09-09T02:19:22;4.85;;;1.80;;
73642;SDS011;61938;48.652;9.292;2022-09-09T02:21:52;7.55;;;2.00;;
73642;SDS011;61938;48.652;9.292;2022-09-09T02:24:21;4.82;;;1.50;;
73642;SDS011;61938;48.652;9.292;2022-09-09T02:26:48;4.45;;;1.50;;
73642;SDS011;61938;48.652;9.292;2022-09-09T02:29:27;3.60;;;1.60;;
73642;SDS011;61938;48.652;9.292;2022-09-09T02:32:00;5.60;;;1.55;;
73642;SDS011;61938;48.652;9.292;2022-09-09T02:34:30;7.13;;;2.23;;
73642;SDS011;61938;48.652;9.292;2022-09-09T02:36:59;9.52;;;2.30;;
73642;SDS011;61938;48.652;9.292;2022-09-09T02:39:28;7.80;;;2.33;;
73642;SDS011;61938;48.652;9.292;2022-09-09T02:41:54;4.22;;;2.00;;
73642;SDS011;61938;48.652;9.292;2022-09-09T02:44:21;9.55;;;2.08;;
73642;SDS011;61938;48.652;9.292;2022-09-09T02:47:08;8.75;;;2.22;;
73642;SDS011;61938;48.652;9.292;2022-09-09T02:55:22;6.57;;;1.98;;
73642;SDS011;61938;48.652;9.292;2022-09-09T02:57:49;3.35;;;1.85;;
73642;SDS011;61938;48.652;9.292;2022-09-09T03:00:22;6.38;;;1.83;;
73642;SDS011;61938;48.652;9.292;2022-09-09T03:02:52;6.45;;;2.20;;
73642;SDS011;61938;48.652;9.292;2022-09-09T03:05:19;11.73;;;2.03;;
73642;SDS011;61938;48.652;9.292;2022-09-09T03:07:46;5.15;;;1.90;;
73642;SDS011;61938;48.652;9.292;2022-09-09T03:10:12;10.00;;;1.90;;
73642;SDS011;61938;48.652;9.292;2022-09-09T03:12:38;4.20;;;1.73;;
73642;SDS011;61938;48.652;9.292;2022-09-09T03:15:05;2.85;;;1.77;;
73642;SDS011;61938;48.652;9.292;2022-09-09T03:17:31;5.35;;;2.45;;
73642;SDS011;61938;48.652;9.292;2022-09-09T03:19:57;9.57;;;2.40;;
73642;SDS011;61938;48.652;9.292;2022-09-09T03:22:23;7.05;;;2.28;;
73642;SDS011;61938;48.652;9.292;2022-09-09T03:24:50;4.97;;;2.25;;
73642;SDS011;61938;48.652;9.292;2022-09-09T03:27:16;8.25;;;2.67;;
73642;SDS011;61938;48.652;9.292;2022-09-09T03:29:44;3.88;;;1.90;;
73642;SDS011;61938;48.652;9.292;2022-09-09T03:32:11;5.65;;;2.20;;
73642;SDS011;61938;48.652;9.292;2022-09-09T03:34:37;20.80;;;2.58;;
73642;SDS011;61938;48.652;9.292;2022-09-09T03:37:06;4.40;;;1.83;;
73642;SDS011;61938;48.652;9.292;2022-09-09T03:39:32;6.65;;;2.40;;
73642;SDS011;61938;48.652;9.292;2022-09-09T03:41:57;7.57;;;1.77;;
73642;SDS011;61938;48.652;9.292;2022-09-09T03:44:23;8.68;;;2.33;;
73642;SDS011;61938;48.652;9.292;2022-09-09T03:46:49;3.38;;;1.98;;
73642;SDS011;61938;48.652;9.292;2022-09-09T03:49:14;11.38;;;2.47;;
73642;SDS011;61938;48.652;9.292;2022-09-09T03:51:41;10.88;;;2.15;;
73642;SDS011;61938;48.652;9.292;2022-09-09T03:54:08;6.28;;;2.22;;
73642;SDS011;61938;48.652;9.292;2022-09-09T03:56:35;6.22;;;2.22;;
73642;SDS011;61938;48.652;9.292;2022-09-09T03:59:02;5.10;;;2.40;;
73642;SDS011;61938;48.652;9.292;2022-09-09T04:01:28;6.25;;;2.20;;
73642;SDS011;61938;48.652;9.292;2022-09-09T04:03:54;7.97;;;2.08;;
73642;SDS011;61938;48.652;9.292;2022-09-09T04:06:23;8.13;;;2.42;;
73642;SDS011;61938;48.652;9.292;2022-09-09T04:08:49;5.75;;;2.17;;
73642;SDS011;61938;48.652;9.292;2022-09-09T04:11:17;6.63;;;2.22;;
73642;SDS011;61938;48.652;9.292;2022-09-09T04:13:43;6.80;;;2.80;;
73642;SDS011;61938;48.652;9.292;2022-09-09T04:16:10;6.03;;;2.13;;
73642;SDS011;61938;48.652;9.292;2022-09-09T04:18:38;4.18;;;2.25;;
73642;SDS011;61938;48.652;9.292;2022-09-09T04:21:04;6.32;;;2.13;;
73642;SDS011;61938;48.652;9.292;2022-09-09T04:23:31;10.18;;;2.25;;
73642;SDS011;61938;48.652;9.292;2022-09-09T04:25:59;8.48;;;2.38;;
73642;SDS011;61938;48.652;9.292;2022-09-09T04:28:27;10.57;;;2.53;;
73642;SDS011;61938;48.652;9.292;2022-09-09T04:30:54;7.07;;;2.30;;
73642;SDS011;61938;48.652;9.292;2022-09-09T04:33:20;5.25;;;2.25;;
73642;SDS011;61938;48.652;9.292;2022-09-09T04:35:47;13.40;;;2.38;;
73642;SDS011;61938;48.652;9.292;2022-09-09T04:38:14;5.60;;;2.10;;
73642;SDS011;61938;48.652;9.292;2022-09-09T04:40:46;8.10;;;2.50;;
73642;SDS011;61938;48.652;9.292;2022-09-09T04:43:12;2.83;;;2.13;;
73642;SDS011;61938;48.652;9.292;2022-09-09T04:45:39;13.68;;;2.47;;
73642;SDS011;61938;48.652;9.292;2022-09-09T04:48:06;3.90;;;2.00;;
73642;SDS011;61938;48.652;9.292;2022-09-09T04:50:32;10.68;;;2.67;;
73642;SDS011;61938;48.652;9.292;2022-09-09T04:53:01;7.10;;;2.05;;
73642;SDS011;61938;48.652;9.292;2022-09-09T04:55:30;5.00;;;2.58;;
73642;SDS011;61938;48.652;9.292;2022-09-09T04:57:56;3.58;;;2.13;;
73642;SDS011;61938;48.652;9.292;2022-09-09T05:00:22;4.32;;;2.40;;
73642;SDS011;61938;48.652;9.292;2022-09-09T05:02:49;5.65;;;2.40;;
73642;SDS011;61938;48.652;9.292;2022-09-09T05:05:14;5.32;;;2.15;;
73642;SDS011;61938;48.652;9.292;2022-09-09T05:07:41;4.85;;;2.40;;
73642;SDS011;61938;48.652;9.292;2022-09-09T05:10:08;8.90;;;2.38;;
73642;SDS011;61938;48.652;9.292;2022-09-09T05:12:35;8.90;;;2.55;;
73642;SDS011;61938;48.652;9.292;2022-09-09T05:15:01;8.00;;;2.28;;
73642;SDS011;61938;48.652;9.292;2022-09-09T05:17:26;9.48;;;2.70;;
73642;SDS011;61938;48.652;9.292;2022-09-09T05:19:52;7.32;;;2.40;;
73642;SDS011;61938;48.652;9.292;2022-09-09T05:22:21;6.32;;;2.22;;
73642;SDS011;61938;48.652;9.292;2022-09-09T05:24:48;6.10;;;2.80;;
73642;SDS011;61938;48.652;9.292;2022-09-09T05:27:16;3.90;;;2.17;;
73642;SDS011;61938;48.652;9.292;2022-09-09T05:29:45;5.80;;;2.25;;
73642;SDS011;61938;48.652;9.292;2022-09-09T05:32:11;9.07;;;2.65;;
73642;SDS011;61938;48.652;9.292;2022-09-09T05:34:39;3.30;;;2.05;;
73642;SDS011;61938;48.652;9.292;2022-09-09T05:37:05;6.85;;;2.65;;
73642;SDS011;61938;48.652;9.292;2022-09-09T05:39:32;6.50;;;2.65;;
73642;SDS011;61938;48.652;9.292;2022-09-09T05:41:59;5.85;;;2.20;;
73642;SDS011;61938;48.652;9.292;2022-09-09T05:44:24;6.00;;;1.98;;
73642;SDS011;61938;48.652;9.292;2022-09-09T05:46:52;5.00;;;2.10;;
73642;SDS011;61938;48.652;9.292;2022-09-09T05:49:19;6.70;;;2.13;;
73642;SDS011;61938;48.652;9.292;2022-09-09T05:51:45;9.82;;;2.20;;
73642;SDS011;61938;48.652;9.292;2022-09-09T05:54:11;5.07;;;2.17;;
73642;SDS011;61938;48.652;9.292;2022-09-09T05:56:40;9.27;;;1.85;;
73642;SDS011;61938;48.652;9.292;2022-09-09T05:59:06;8.18;;;2.20;;
73642;SDS011;61938;48.652;9.292;2022-09-09T06:01:32;4.75;;;1.92;;
73642;SDS011;61938;48.652;9.292;2022-09-09T06:04:00;4.40;;;2.00;;
73642;SDS011;61938;48.652;9.292;2022-09-09T06:06:27;4.93;;;1.70;;
73642;SDS011;61938;48.652;9.292;2022-09-09T06:09:01;10.20;;;2.65;;
73642;SDS011;61938;48.652;9.292;2022-09-09T06:11:31;5.35;;;2.30;;
73642;SDS011;61938;48.652;9.292;2022-09-09T06:14:00;16.85;;;2.63;;
73642;SDS011;61938;48.652;9.292;2022-09-09T06:16:26;7.55;;;2.33;;
73642;SDS011;61938;48.652;9.292;2022-09-09T06:18:53;5.00;;;1.98;;
73642;SDS011;61938;48.652;9.292;2022-09-09T06:21:26;5.25;;;2.08;;
73642;SDS011;61938;48.652;9.292;2022-09-09T06:23:55;7.50;;;2.63;;
73642;SDS011;61938;48.652;9.292;2022-09-09T06:26:22;3.35;;;1.90;;
73642;SDS011;61938;48.652;9.292;2022-09-09T06:28:50;10.73;;;2.80;;
73642;SDS011;61938;48.652;9.292;2022-09-09T06:31:18;8.07;;;2.30;;
73642;SDS011;61938;48.652;9.292;2022-09-09T06:33:49;5.25;;;2.33;;
73642;SDS011;61938;48.652;9.292;2022-09-09T06:36:17;11.73;;;2.17;;
73642;SDS011;61938;48.652;9.292;2022-09-09T06:38:44;4.38;;;2.20;;
73642;SDS011;61938;48.652;9.292;2022-09-09T06:41:11;5.80;;;2.10;;
73642;SDS011;61938;48.652;9.292;2022-09-09T06:43:39;4.80;;;1.60;;
73642;SDS011;61938;48.652;9.292;2022-09-09T06:46:06;5.43;;;2.22;;
73642;SDS011;61938;48.652;9.292;2022-09-09T06:48:35;7.70;;;1.90;;
73642;SDS011;61938;48.652;9.292;2022-09-09T06:51:05;3.53;;;1.83;;
73642;SDS011;61938;48.652;9.292;2022-09-09T06:53:51;3.88;;;1.77;;
73642;SDS011;61938;48.652;9.292;2022-09-09T06:58:48;4.70;;;1.60;;
73642;SDS011;61938;48.652;9.292;2022-09-09T07:01:18;6.05;;;1.60;;
73642;SDS011;61938;48.652;9.292;2022-09-09T07:03:47;9.50;;;2.10;;
73642;SDS011;61938;48.652;9.292;2022-09-09T07:06:25;6.43;;;2.22;;
73642;SDS011;61938;48.652;9.292;2022-09-09T07:08:53;5.03;;;1.70;;
73642;SDS011;61938;48.652;9.292;2022-09-09T07:11:21;2.70;;;1.40;;
73642;SDS011;61938;48.652;9.292;2022-09-09T07:13:48;4.57;;;1.80;;
73642;SDS011;61938;48.652;9.292;2022-09-09T07:16:15;11.57;;;1.52;;
73642;SDS011;61938;48.652;9.292;2022-09-09T07:18:42;4.82;;;1.60;;
73642;SDS011;61938;48.652;9.292;2022-09-09T07:21:12;8.25;;;1.73;;
73642;SDS011;61938;48.652;9.292;2022-09-09T07:23:39;2.53;;;1.77;;
73642;SDS011;61938;48.652;9.292;2022-09-09T07:26:09;9.93;;;3.20;;
73642;SDS011;61938;48.652;9.292;2022-09-09T07:28:39;6.13;;;1.67;;
73642;SDS011;61938;48.652;9.292;2022-09-09T07:31:06;9.38;;;1.85;;
73642;SDS011;61938;48.652;9.292;2022-09-09T07:33:38;11.75;;;1.88;;
73642;SDS011;61938;48.652;9.292;2022-09-09T07:36:06;4.40;;;1.70;;
73642;SDS011;61938;48.652;9.292;2022-09-09T07:38:38;2.90;;;1.63;;
73642;SDS011;61938;48.652;9.292;2022-09-09T07:41:14;7.50;;;2.08;;
73642;SDS011;61938;48.652;9.292;2022-09-09T07:43:42;5.75;;;1.65;;
73642;SDS011;61938;48.652;9.292;2022-09-09T07:46:09;4.57;;;1.50;;
73642;SDS011;61938;48.652;9.292;2022-09-09T07:48:37;4.63;;;1.80;;
73642;SDS011;61938;48.652;9.292;2022-09-09T07:51:08;8.63;;;1.60;;
73642;SDS011;61938;48.652;9.292;2022-09-09T07:53:36;6.70;;;1.60;;
73642;SDS011;61938;48.652;9.292;2022-09-09T07:56:04;5.68;;;1.60;;
73642;SDS011;61938;48.652;9.292;2022-09-09T07:58:32;4.38;;;1.60;;
73642;SDS011;61938;48.652;9.292;2022-09-09T08:00:58;3.78;;;1.20;;
73642;SDS011;61938;48.652;9.292;2022-09-09T08:03:24;3.28;;;1.35;;
73642;SDS011;61938;48.652;9.292;2022-09-09T08:05:49;5.13;;;1.40;;
73642;SDS011;61938;48.652;9.292;2022-09-09T08:08:16;8.32;;;1.88;;
73642;SDS011;61938;48.652;9.292;2022-09-09T08:10:42;7.78;;;1.42;;
73642;SDS011;61938;48.652;9.292;2022-09-09T08:13:08;6.40;;;1.60;;
73642;SDS011;61938;48.652;9.292;2022-09-09T08:15:34;7.60;;;1.30;;
73642;SDS011;61938;48.652;9.292;2022-09-09T08:18:03;4.70;;;1.13;;
73642;SDS011;61938;48.652;9.292;2022-09-09T08:20:29;9.45;;;1.17;;
73642;SDS011;61938;48.652;9.292;2022-09-09T08:22:55;3.33;;;1.23;;
73642;SDS011;61938;48.652;9.292;2022-09-09T08:25:21;5.68;;;1.35;;
73642;SDS011;61938;48.652;9.292;2022-09-09T08:27:46;5.10;;;1.50;;
73642;SDS011;61938;48.652;9.292;2022-09-09T08:30:12;6.72;;;1.45;;
73642;SDS011;61938;48.652;9.292;2022-09-09T08:32:39;5.38;;;1.50;;
73642;SDS011;61938;48.652;9.292;2022-09-09T08:35:04;3.17;;;1.45;;
73642;SDS011;61938;48.652;9.292;2022-09-09T08:37:31;8.60;;;1.70;;
73642;SDS011;61938;48.652;9.292;2022-09-09T08:39:57;6.30;;;1.75;;
73642;SDS011;61938;48.652;9.292;2022-09-09T08:42:40;5.40;;;1.60;;
73642;SDS011;61938;48.652;9.292;2022-09-09T08:50:26;5.30;;;1.65;;
73642;SDS011;61938;48.652;9.292;2022-09-09T08:55:34;8.02;;;1.60;;
73642;SDS011;61938;48.652;9.292;2022-09-09T08:58:16;6.40;;;1.27;;
73642;SDS011;61938;48.652;9.292;2022-09-09T09:00:54;9.27;;;1.83;;
73642;SDS011;61938;48.652;9.292;2022-09-09T09:12:21;7.53;;;1.58;;
73642;SDS011;61938;48.652;9.292;2022-09-09T09:14:49;10.25;;;1.75;;
73642;SDS011;61938;48.652;9.292;2022-09-09T09:17:19;8.65;;;1.58;;
73642;SDS011;61938;48.652;9.292;2022-09-09T09:19:47;9.05;;;1.48;;
73642;SDS011;61938;48.652;9.292;2022-09-09T09:22:36;8.20;;;1.65;;
73642;SDS011;61938;48.652;9.292;2022-09-09T09:25:30;3.33;;;1.35;;
73642;SDS011;61938;48.652;9.292;2022-09-09T09:28:00;4.60;;;1.33;;
73642;SDS011;61938;48.652;9.292;2022-09-09T09:30:38;5.95;;;1.35;;
73642;SDS011;61938;48.652;9.292;2022-09-09T09:35:38;4.32;;;1.20;;
73642;SDS011;61938;48.652;9.292;2022-09-09T09:38:16;4.07;;;1.10;;
73642;SDS011;61938;48.652;9.292;2022-09-09T09:40:50;5.75;;;1.20;;
73642;SDS011;61938;48.652;9.292;2022-09-09T09:43:21;3.25;;;1.30;;
73642;SDS011;61938;48.652;9.292;2022-09-09T09:45:53;6.63;;;1.00;;
73642;SDS011;61938;48.652;9.292;2022-09-09T09:48:19;5.30;;;1.40;;
73642;SDS011;61938;48.652;9.292;2022-09-09T09:53:23;6.53;;;1.10;;
73642;SDS011;61938;48.652;9.292;2022-09-09T09:55:55;3.17;;;1.02;;
73642;SDS011;61938;48.652;9.292;2022-09-09T09:58:23;3.05;;;0.95;;
73642;SDS011;61938;48.652;9.292;2022-09-09T10:00:50;7.97;;;1.92;;
73642;SDS011;61938;48.652;9.292;2022-09-09T10:03:25;5.65;;;1.27;;
73642;SDS011;61938;48.652;9.292;2022-09-09T10:06:02;6.47;;;0.90;;
73642;SDS011;61938;48.652;9.292;2022-09-09T10:08:29;3.45;;;0.95;;
73642;SDS011;61938;48.652;9.292;2022-09-09T10:19:33;7.20;;;1.00;;
73642;SDS011;61938;48.652;9.292;2022-09-09T10:30:19;7.22;;;1.33;;
73642;SDS011;61938;48.652;9.292;2022-09-09T10:33:04;2.80;;;0.90;;
73642;SDS011;61938;48.652;9.292;2022-09-09T10:38:40;6.13;;;1.10;;
73642;SDS011;61938;48.652;9.292;2022-09-09T10:44:14;3.58;;;0.70;;
73642;SDS011;61938;48.652;9.292;2022-09-09T10:49:28;2.63;;;1.02;;
73642;SDS011;61938;48.652;9.292;2022-09-09T10:55:00;8.23;;;1.13;;
73642;SDS011;61938;48.652;9.292;2022-09-09T11:00:03;3.08;;;1.02;;
73642;SDS011;61938;48.652;9.292;2022-09-09T11:02:32;6.60;;;1.10;;
73642;SDS011;61938;48.652;9.292;2022-09-09T11:07:51;4.28;;;0.88;;
73642;SDS011;61938;48.652;9.292;2022-09-09T11:13:09;3.92;;;1.17;;
73642;SDS011;61938;48.652;9.292;2022-09-09T11:15:58;3.30;;;0.85;;
73642;SDS011;61938;48.652;9.292;2022-09-09T11:18:30;3.80;;;0.82;;
73642;SDS011;61938;48.652;9.292;2022-09-09T11:21:02;2.35;;;0.73;;
73642;SDS011;61938;48.652;9.292;2022-09-09T11:26:06;4.68;;;0.85;;
73642;SDS011;61938;48.652;9.292;2022-09-09T11:37:00;6.65;;;1.50;;
73642;SDS011;61938;48.652;9.292;2022-09-09T11:44:37;9.32;;;1.40;;
73642;SDS011;61938;48.652;9.292;2022-09-09T11:47:03;2.97;;;1.13;;
73642;SDS011;61938;48.652;9.292;2022-09-09T11:49:41;3.92;;;1.13;;
73642;SDS011;61938;48.652;9.292;2022-09-09T11:52:12;2.22;;;0.77;;
73642;SDS011;61938;48.652;9.292;2022-09-09T11:54:47;8.27;;;0.80;;
73642;SDS011;61938;48.652;9.292;2022-09-09T12:00:27;1.75;;;0.77;;
73642;SDS011;61938;48.652;9.292;2022-09-09T12:06:19;4.13;;;0.82;;
73642;SDS011;61938;48.652;9.292;2022-09-09T12:08:53;1.35;;;0.60;;
73642;SDS011;61938;48.652;9.292;2022-09-09T12:11:24;2.05;;;0.35;;
73642;SDS011;61938;48.652;9.292;2022-09-09T12:13:55;1.60;;;0.52;;
73642;SDS011;61938;48.652;9.292;2022-09-09T12:16:36;7.25;;;0.30;;
73642;SDS011;61938;48.652;9.292;2022-09-09T12:19:21;2.65;;;0.20;;
73642;SDS011;61938;48.652;9.292;2022-09-09T12:24:23;1.50;;;0.30;;
73642;SDS011;61938;48.652;9.292;2022-09-09T12:27:20;0.93;;;0.30;;
73642;SDS011;61938;48.652;9.292;2022-09-09T12:32:27;4.40;;;0.40;;
73642;SDS011;61938;48.652;9.292;2022-09-09T12:35:01;2.25;;;0.52;;
73642;SDS011;61938;48.652;9.292;2022-09-09T12:37:37;2.10;;;0.63;;
73642;SDS011;61938;48.652;9.292;2022-09-09T12:40:20;2.20;;;0.30;;
73642;SDS011;61938;48.652;9.292;2022-09-09T12:42:50;2.38;;;0.77;;
73642;SDS011;61938;48.652;9.292;2022-09-09T12:50:44;4.85;;;0.60;;
73642;SDS011;61938;48.652;9.292;2022-09-09T12:53:15;5.55;;;0.70;;
73642;SDS011;61938;48.652;9.292;2022-09-09T12:56:09;7.57;;;0.77;;
73642;SDS011;61938;48.652;9.292;2022-09-09T12:58:45;4.38;;;0.80;;
73642;SDS011;61938;48.652;9.292;2022-09-09T13:01:32;3.38;;;0.90;;
73642;SDS011;61938;48.652;9.292;2022-09-09T13:03:58;2.88;;;0.90;;
73642;SDS011;61938;48.652;9.292;2022-09-09T13:06:25;4.25;;;0.70;;
73642;SDS011;61938;48.652;9.292;2022-09-09T13:08:56;3.53;;;1.03;;
73642;SDS011;61938;48.652;9.292;2022-09-09T13:13:54;2.00;;;0.50;;
73642;SDS011;61938;48.652;9.292;2022-09-09T13:18:51;2.60;;;0.80;;
73642;SDS011;61938;48.652;9.292;2022-09-09T13:21:17;5.35;;;1.00;;
73642;SDS011;61938;48.652;9.292;2022-09-09T13:23:48;4.15;;;0.70;;
73642;SDS011;61938;48.652;9.292;2022-09-09T13:26:23;2.45;;;0.73;;
73642;SDS011;61938;48.652;9.292;2022-09-09T13:28:51;3.53;;;0.60;;
73642;SDS011;61938;48.652;9.292;2022-09-09T13:31:20;4.82;;;1.05;;
73642;SDS011;61938;48.652;9.292;2022-09-09T13:33:54;3.03;;;0.65;;
73642;SDS011;61938;48.652;9.292;2022-09-09T13:36:32;4.70;;;0.90;;
73642;SDS011;61938;48.652;9.292;2022-09-09T13:39:00;2.83;;;0.70;;
73642;SDS011;61938;48.652;9.292;2022-09-09T13:41:30;11.82;;;1.10;;
73642;SDS011;61938;48.652;9.292;2022-09-09T13:43:58;2.75;;;0.50;;
73642;SDS011;61938;48.652;9.292;2022-09-09T13:46:41;4.75;;;0.80;;
73642;SDS011;61938;48.652;9.292;2022-09-09T13:51:43;12.57;;;1.48;;
73642;SDS011;61938;48.652;9.292;2022-09-09T13:54:12;42.47;;;1.60;;
73642;SDS011;61938;48.652;9.292;2022-09-09T13:56:40;6.18;;;0.98;;
73642;SDS011;61938;48.652;9.292;2022-09-09T13:59:16;2.00;;;0.50;;
73642;SDS011;61938;48.652;9.292;2022-09-09T14:01:44;1.75;;;0.70;;
73642;SDS011;61938;48.652;9.292;2022-09-09T14:04:11;3.75;;;0.55;;
73642;SDS011;61938;48.652;9.292;2022-09-09T14:06:37;1.90;;;0.60;;
73642;SDS011;61938;48.652;9.292;2022-09-09T14:09:09;2.85;;;0.70;;
73642;SDS011;61938;48.652;9.292;2022-09-09T14:11:36;3.00;;;0.73;;
73642;SDS011;61938;48.652;9.292;2022-09-09T14:14:03;5.18;;;0.82;;
73642;SDS011;61938;48.652;9.292;2022-09-09T14:16:30;6.38;;;0.55;;
73642;SDS011;61938;48.652;9.292;2022-09-09T14:18:55;7.88;;;0.93;;
73642;SDS011;61938;48.652;9.292;2022-09-09T14:21:22;3.92;;;0.63;;
73642;SDS011;61938;48.652;9.292;2022-09-09T14:23:48;1.98;;;0.47;;
73642;SDS011;61938;48.652;9.292;2022-09-09T14:26:14;5.18;;;0.85;;
73642;SDS011;61938;48.652;9.292;2022-09-09T14:28:40;1.98;;;0.40;;
73642;SDS011;61938;48.652;9.292;2022-09-09T14:31:06;4.07;;;0.73;;
73642;SDS011;61938;48.652;9.292;2022-09-09T14:33:32;3.05;;;0.63;;
73642;SDS011;61938;48.652;9.292;2022-09-09T14:35:59;7.78;;;1.00;;
73642;SDS011;61938;48.652;9.292;2022-09-09T14:38:29;6.15;;;1.10;;
73642;SDS011;61938;48.652;9.292;2022-09-09T14:40:59;0.85;;;0.40;;
73642;SDS011;61938;48.652;9.292;2022-09-09T14:43:28;2.75;;;0.93;;
73642;SDS011;61938;48.652;9.292;2022-09-09T14:45:55;5.00;;;0.95;;
73642;SDS011;61938;48.652;9.292;2022-09-09T14:48:21;6.68;;;0.95;;
73642;SDS011;61938;48.652;9.292;2022-09-09T14:50:46;2.95;;;0.85;;
73642;SDS011;61938;48.652;9.292;2022-09-09T14:53:14;2.83;;;0.50;;
73642;SDS011;61938;48.652;9.292;2022-09-09T14:55:41;1.52;;;0.57;;
73642;SDS011;61938;48.652;9.292;2022-09-09T14:58:07;2.35;;;0.50;;
73642;SDS011;61938;48.652;9.292;2022-09-09T15:00:33;3.33;;;0.40;;
73642;SDS011;61938;48.652;9.292;2022-09-09T15:02:59;2.35;;;0.45;;
73642;SDS011;61938;48.652;9.292;2022-09-09T15:05:24;4.28;;;0.70;;
73642;SDS011;61938;48.652;9.292;2022-09-09T15:07:50;4.55;;;1.10;;
73642;SDS011;61938;48.652;9.292;2022-09-09T15:10:16;6.53;;;0.70;;
73642;SDS011;61938;48.652;9.292;2022-09-09T15:12:42;5.25;;;0.73;;
73642;SDS011;61938;48.652;9.292;2022-09-09T15:15:09;3.90;;;0.82;;
73642;SDS011;61938;48.652;9.292;2022-09-09T15:17:35;3.00;;;0.90;;
73642;SDS011;61938;48.652;9.292;2022-09-09T15:20:02;2.50;;;0.65;;
73642;SDS011;61938;48.652;9.292;2022-09-09T15:22:28;3.53;;;0.55;;
73642;SDS011;61938;48.652;9.292;2022-09-09T15:24:54;3.75;;;0.90;;
73642;SDS011;61938;48.652;9.292;2022-09-09T15:27:20;2.47;;;0.70;;
73642;SDS011;61938;48.652;9.292;2022-09-09T15:29:45;12.55;;;0.80;;
73642;SDS011;61938;48.652;9.292;2022-09-09T15:32:12;6.00;;;0.77;;
73642;SDS011;61938;48.652;9.292;2022-09-09T15:34:37;2.65;;;0.55;;
73642;SDS011;61938;48.652;9.292;2022-09-09T15:37:03;2.45;;;0.60;;
73642;SDS011;61938;48.652;9.292;2022-09-09T15:39:29;9.02;;;0.77;;
73642;SDS011;61938;48.652;9.292;2022-09-09T15:41:55;6.53;;;0.68;;
73642;SDS011;61938;48.652;9.292;2022-09-09T15:44:21;4.53;;;0.70;;
73642;SDS011;61938;48.652;9.292;2022-09-09T15:46:51;3.30;;;0.82;;
73642;SDS011;61938;48.652;9.292;2022-09-09T15:49:22;4.85;;;0.90;;
73642;SDS011;61938;48.652;9.292;2022-09-09T15:51:57;7.80;;;0.77;;
73642;SDS011;61938;48.652;9.292;2022-09-09T15:54:27;4.13;;;0.70;;
73642;SDS011;61938;48.652;9.292;2022-09-09T15:56:56;5.03;;;0.98;;
73642;SDS011;61938;48.652;9.292;2022-09-09T15:59:25;3.95;;;0.90;;
73642;SDS011;61938;48.652;9.292;2022-09-09T16:01:53;2.35;;;0.50;;
73642;SDS011;61938;48.652;9.292;2022-09-09T16:04:20;9.55;;;0.77;;
73642;SDS011;61938;48.652;9.292;2022-09-09T16:06:50;6.97;;;1.00;;
73642;SDS011;61938;48.652;9.292;2022-09-09T16:09:17;3.13;;;0.98;;
73642;SDS011;61938;48.652;9.292;2022-09-09T16:11:42;2.78;;;0.50;;
73642;SDS011;61938;48.652;9.292;2022-09-09T16:14:08;4.90;;;0.60;;
73642;SDS011;61938;48.652;9.292;2022-09-09T16:16:34;4.47;;;0.68;;
73642;SDS011;61938;48.652;9.292;2022-09-09T16:19:03;8.32;;;0.70;;
73642;SDS011;61938;48.652;9.292;2022-09-09T16:21:32;3.10;;;0.63;;
73642;SDS011;61938;48.652;9.292;2022-09-09T16:24:01;4.88;;;0.60;;
73642;SDS011;61938;48.652;9.292;2022-09-09T16:26:28;12.85;;;0.77;;
73642;SDS011;61938;48.652;9.292;2022-09-09T16:28:56;1.85;;;0.38;;
73642;SDS011;61938;48.652;9.292;2022-09-09T16:31:24;8.23;;;0.73;;
73642;SDS011;61938;48.652;9.292;2022-09-09T16:33:50;2.40;;;0.45;;
73642;SDS011;61938;48.652;9.292;2022-09-09T16:36:18;12.77;;;0.90;;
73642;SDS011;61938;48.652;9.292;2022-09-09T16:38:45;9.07;;;0.80;;
73642;SDS011;61938;48.652;9.292;2022-09-09T16:41:11;9.55;;;1.10;;
73642;SDS011;61938;48.652;9.292;2022-09-09T16:43:39;3.78;;;0.45;;
73642;SDS011;61938;48.652;9.292;2022-09-09T16:46:18;2.90;;;0.50;;
73642;SDS011;61938;48.652;9.292;2022-09-09T16:48:45;3.42;;;0.77;;
73642;SDS011;61938;48.652;9.292;2022-09-09T16:51:13;1.20;;;0.40;;
73642;SDS011;61938;48.652;9.292;2022-09-09T16:53:39;2.67;;;0.50;;
73642;SDS011;61938;48.652;9.292;2022-09-09T16:56:08;2.88;;;0.50;;
73642;SDS011;61938;48.652;9.292;2022-09-09T16:58:35;2.65;;;0.57;;
73642;SDS011;61938;48.652;9.292;2022-09-09T17:01:01;2.97;;;0.40;;
73642;SDS011;61938;48.652;9.292;2022-09-09T17:03:28;3.28;;;0.88;;
73642;SDS011;61938;48.652;9.292;2022-09-09T17:05:54;5.18;;;0.50;;
73642;SDS011;61938;48.652;9.292;2022-09-09T17:08:22;3.95;;;0.70;;
73642;SDS011;61938;48.652;9.292;2022-09-09T17:10:49;4.22;;;0.68;;
73642;SDS011;61938;48.652;9.292;2022-09-09T17:13:15;1.88;;;0.55;;
73642;SDS011;61938;48.652;9.292;2022-09-09T17:15:43;1.75;;;0.93;;
73642;SDS011;61938;48.652;9.292;2022-09-09T17:18:09;4.10;;;1.33;;
73642;SDS011;61938;48.652;9.292;2022-09-09T17:20:36;5.25;;;1.45;;
73642;SDS011;61938;48.652;9.292;2022-09-09T17:23:04;6.63;;;1.85;;
73642;SDS011;61938;48.652;9.292;2022-09-09T17:25:34;5.68;;;2.05;;
73642;SDS011;61938;48.652;9.292;2022-09-09T17:28:00;3.80;;;1.20;;